createdAt,value
2019-02-24T00:01:49.633Z,19.43
2019-02-24T00:04:18.707Z,16.97
2019-02-24T00:06:47.827Z,18.50
2019-02-24T00:09:16.967Z,18.50
2019-02-24T00:11:46.049Z,16.47
2019-02-24T00:14:15.048Z,15.73
2019-02-24T00:16:44.281Z,16.00
2019-02-24T00:19:13.351Z,17.07
2019-02-24T00:21:42.413Z,16.60
2019-02-24T00:24:11.671Z,15.80
2019-02-24T00:26:40.654Z,16.70
2019-02-24T00:29:09.732Z,16.93
2019-02-24T00:31:39.052Z,16.53
2019-02-24T00:34:08.049Z,14.73
2019-02-24T00:36:37.167Z,17.73
2019-02-24T00:39:06.846Z,15.43
2019-02-24T00:41:35.920Z,17.50
2019-02-24T00:44:05.065Z,15.50
2019-02-24T00:46:34.542Z,16.77
2019-02-24T00:49:04.132Z,16.77
2019-02-24T00:51:33.220Z,17.97
2019-02-24T00:54:02.468Z,19.20
2019-02-24T00:56:31.556Z,17.30
2019-02-24T00:59:00.559Z,16.13
2019-02-24T01:01:29.742Z,18.43
2019-02-24T01:03:58.680Z,16.83
2019-02-24T01:06:27.744Z,15.30
2019-02-24T01:08:57.010Z,16.50
2019-02-24T01:11:26.058Z,15.80
2019-02-24T01:13:55.189Z,14.23
2019-02-24T01:16:24.502Z,14.40
2019-02-24T01:18:53.426Z,16.07
2019-02-24T01:21:22.472Z,19.17
2019-02-24T01:23:52.091Z,16.47
2019-02-24T01:26:21.130Z,16.67
2019-02-24T01:28:50.186Z,17.07
2019-02-24T01:31:19.493Z,16.63
2019-02-24T01:33:48.651Z,18.30
2019-02-24T01:36:17.718Z,17.47
2019-02-24T01:38:50.224Z,15.83
2019-02-24T01:41:19.273Z,15.33
2019-02-24T01:43:48.580Z,16.70
2019-02-24T01:46:19.456Z,15.53
2019-02-24T01:48:48.665Z,16.13
2019-02-24T01:51:17.697Z,15.47
2019-02-24T01:53:47.100Z,17.00
2019-02-24T01:56:17.658Z,16.97
2019-02-24T01:58:46.731Z,15.93
2019-02-24T02:01:18.248Z,16.23
2019-02-24T02:03:47.336Z,16.43
2019-02-24T02:06:16.441Z,16.23
2019-02-24T02:08:45.656Z,17.63
2019-02-24T02:11:14.697Z,16.77
2019-02-24T02:13:43.695Z,16.17
2019-02-24T02:16:12.941Z,16.03
2019-02-24T02:18:46.626Z,17.33
2019-02-24T02:21:15.897Z,17.37
2019-02-24T02:23:44.981Z,17.53
2019-02-24T02:26:13.982Z,18.47
2019-02-24T02:28:44.174Z,15.73
2019-02-24T02:31:13.378Z,17.20
2019-02-24T02:33:42.480Z,15.63
2019-02-24T02:36:11.740Z,15.43
2019-02-24T02:38:40.740Z,17.57
2019-02-24T02:41:09.826Z,17.17
2019-02-24T02:43:39.029Z,16.67
2019-02-24T02:46:08.108Z,17.70
2019-02-24T02:48:37.094Z,17.17
2019-02-24T02:51:06.314Z,17.47
2019-02-24T02:53:36.013Z,16.73
2019-02-24T02:56:05.114Z,19.97
2019-02-24T02:58:34.216Z,16.93
2019-02-24T03:01:03.318Z,15.50
2019-02-24T03:03:32.386Z,16.00
2019-02-24T03:06:19.208Z,18.00
2019-02-24T03:08:49.778Z,18.73
2019-02-24T03:11:18.905Z,17.87
2019-02-24T03:13:48.136Z,17.47
2019-02-24T03:16:23.055Z,15.53
2019-02-24T03:18:52.489Z,16.97
2019-02-24T03:21:21.558Z,17.50
2019-02-24T03:23:50.487Z,16.73
2019-02-24T03:26:19.754Z,17.47
2019-02-24T03:28:48.665Z,17.83
2019-02-24T03:31:17.738Z,15.10
2019-02-24T03:33:46.945Z,16.83
2019-02-24T03:36:15.950Z,16.40
2019-02-24T03:38:45.012Z,21.83
2019-02-24T03:41:14.219Z,16.70
2019-02-24T03:43:43.359Z,17.60
2019-02-24T03:46:12.461Z,19.00
2019-02-24T03:48:41.731Z,18.40
2019-02-24T03:51:10.774Z,18.43
2019-02-24T03:53:39.861Z,17.10
2019-02-24T03:56:09.217Z,18.67
2019-02-24T03:58:38.291Z,19.93
2019-02-24T04:01:07.271Z,18.80
2019-02-24T04:03:36.491Z,18.30
2019-02-24T04:06:05.517Z,19.33
2019-02-24T04:08:34.689Z,18.47
2019-02-24T04:11:03.914Z,18.13
2019-02-24T04:13:33.033Z,21.10
2019-02-24T04:16:02.074Z,20.53
2019-02-24T04:18:31.274Z,19.90
2019-02-24T04:21:00.433Z,22.43
2019-02-24T04:23:30.599Z,21.63
2019-02-24T04:25:59.721Z,20.27
2019-02-24T04:28:28.769Z,22.03
2019-02-24T04:30:57.879Z,21.10
2019-02-24T04:33:27.166Z,19.07
2019-02-24T04:35:56.196Z,19.60
2019-02-24T04:38:25.199Z,18.73
2019-02-24T04:40:54.482Z,19.07
2019-02-24T04:43:23.492Z,18.77
2019-02-24T04:45:52.504Z,19.37
2019-02-24T04:48:21.846Z,22.43
2019-02-24T04:50:50.932Z,19.30
2019-02-24T04:53:19.999Z,22.43
2019-02-24T04:55:49.136Z,18.33
2019-02-24T04:58:18.072Z,20.80
2019-02-24T05:00:47.171Z,19.53
2019-02-24T05:03:16.418Z,19.50
2019-02-24T05:05:45.349Z,17.67
2019-02-24T05:08:14.391Z,20.03
2019-02-24T05:10:43.709Z,18.73
2019-02-24T05:13:12.773Z,18.83
2019-02-24T05:15:42.925Z,19.57
2019-02-24T05:18:12.208Z,18.07
2019-02-24T05:20:41.288Z,16.13
2019-02-24T05:23:10.387Z,18.73
2019-02-24T05:25:39.712Z,17.83
2019-02-24T05:28:08.727Z,17.23
2019-02-24T05:30:37.809Z,18.23
2019-02-24T05:33:09.505Z,18.27
2019-02-24T05:35:38.634Z,17.63
2019-02-24T05:38:07.875Z,17.87
2019-02-24T05:40:37.306Z,18.63
2019-02-24T05:43:06.483Z,20.73
2019-02-24T05:45:35.546Z,22.33
2019-02-24T05:48:04.959Z,17.53
2019-02-24T05:50:34.221Z,18.07
2019-02-24T05:53:03.403Z,19.07
2019-02-24T05:55:32.637Z,20.03
2019-02-24T05:58:01.841Z,18.43
2019-02-24T06:00:31.056Z,22.60
2019-02-24T06:03:00.481Z,19.80
2019-02-24T06:05:29.469Z,18.23
2019-02-24T06:07:58.558Z,20.97
2019-02-24T06:10:28.149Z,20.77
2019-02-24T06:12:57.053Z,20.57
2019-02-24T06:15:26.155Z,21.90
2019-02-24T06:17:55.432Z,20.20
2019-02-24T06:20:24.745Z,18.57
2019-02-24T06:22:54.042Z,19.70
2019-02-24T06:25:23.328Z,20.63
2019-02-24T06:27:52.534Z,21.33
2019-02-24T06:30:22.979Z,19.50
2019-02-24T06:32:53.402Z,21.10
2019-02-24T06:35:23.698Z,23.07
2019-02-24T06:37:53.008Z,22.77
2019-02-24T06:40:25.181Z,20.60
2019-02-24T06:42:54.266Z,23.47
2019-02-24T06:45:23.688Z,21.73
2019-02-24T06:47:52.856Z,24.10
2019-02-24T06:50:22.149Z,20.03
2019-02-24T06:52:57.038Z,21.87
2019-02-24T06:55:23.485Z,20.93
2019-02-24T06:57:54.803Z,21.77
2019-02-24T07:00:23.952Z,23.37
2019-02-24T07:02:53.108Z,24.63
2019-02-24T07:05:22.474Z,22.80
2019-02-24T07:07:53.231Z,25.10
2019-02-24T07:10:25.380Z,20.33
2019-02-24T07:12:54.469Z,23.80
2019-02-24T07:15:23.531Z,26.20
2019-02-24T07:17:52.969Z,22.50
2019-02-24T07:20:22.039Z,22.70
2019-02-24T07:22:51.193Z,23.43
2019-02-24T07:25:20.365Z,23.07
2019-02-24T07:27:50.227Z,20.57
2019-02-24T07:30:23.410Z,22.30
2019-02-24T07:32:50.199Z,22.17
2019-02-24T07:35:19.267Z,25.27
2019-02-24T07:37:48.327Z,25.10
2019-02-24T07:40:17.589Z,21.27
2019-02-24T07:42:46.710Z,22.43
2019-02-24T07:45:15.921Z,22.30
2019-02-24T07:47:45.291Z,21.13
2019-02-24T07:50:14.367Z,24.13
2019-02-24T07:52:43.392Z,26.80
2019-02-24T07:55:12.670Z,22.53
2019-02-24T07:57:41.651Z,20.87
2019-02-24T08:00:10.818Z,20.63
2019-02-24T08:02:42.942Z,20.77
2019-02-24T08:05:12.018Z,22.27
2019-02-24T08:07:41.169Z,23.33
2019-02-24T08:10:10.522Z,22.63
2019-02-24T08:12:39.512Z,22.30
2019-02-24T08:15:08.769Z,19.77
2019-02-24T08:17:38.122Z,21.50
2019-02-24T08:20:08.034Z,19.80
2019-02-24T08:22:37.120Z,21.63
2019-02-24T08:25:06.535Z,24.60
2019-02-24T08:27:35.650Z,21.87
2019-02-24T08:30:05.269Z,21.50
2019-02-24T08:32:34.468Z,20.40
2019-02-24T08:35:04.141Z,20.97
2019-02-24T08:37:33.224Z,22.63
2019-02-24T08:40:02.544Z,23.03
2019-02-24T08:42:31.708Z,24.80
2019-02-24T08:45:00.801Z,23.67
2019-02-24T08:47:30.034Z,22.43
2019-02-24T08:49:59.024Z,19.53
2019-02-24T08:52:28.203Z,21.20
2019-02-24T08:54:59.465Z,20.53
2019-02-24T08:57:28.813Z,21.07
2019-02-24T08:59:57.935Z,20.27
2019-02-24T09:02:28.853Z,22.30
2019-02-24T09:04:58.021Z,19.07
2019-02-24T09:07:27.015Z,20.63
2019-02-24T09:09:56.188Z,19.13
2019-02-24T09:12:25.289Z,21.80
2019-02-24T09:14:54.371Z,17.97
2019-02-24T09:17:26.519Z,20.57
2019-02-24T09:19:55.624Z,20.17
2019-02-24T09:22:24.929Z,20.97
2019-02-24T09:24:54.035Z,17.30
2019-02-24T09:27:23.115Z,18.23
2019-02-24T09:29:55.040Z,18.90
2019-02-24T09:32:24.190Z,17.23
2019-02-24T09:34:53.279Z,19.50
2019-02-24T09:37:22.487Z,17.87
2019-02-24T09:39:51.817Z,18.10
2019-02-24T09:42:21.576Z,18.03
2019-02-24T09:44:50.789Z,15.73
2019-02-24T09:47:19.862Z,17.07
2019-02-24T09:49:48.860Z,15.87
2019-02-24T09:52:18.176Z,18.80
2019-02-24T09:54:53.529Z,16.80
2019-02-24T09:57:22.866Z,16.63
2019-02-24T09:59:52.022Z,15.40
2019-02-24T10:02:21.104Z,13.93
2019-02-24T10:04:50.122Z,14.57
2019-02-24T10:07:19.200Z,14.90
2019-02-24T10:09:48.205Z,12.00
2019-02-24T10:12:18.094Z,14.17
2019-02-24T10:14:47.170Z,12.53
2019-02-24T10:17:16.225Z,13.03
2019-02-24T10:19:45.367Z,13.00
2019-02-24T10:22:14.359Z,14.97
2019-02-24T10:24:43.454Z,15.00
2019-02-24T10:27:13.102Z,13.80
2019-02-24T10:29:42.156Z,15.63
2019-02-24T10:32:11.318Z,15.30
2019-02-24T10:34:40.688Z,14.70
2019-02-24T10:37:09.684Z,14.50
2019-02-24T10:39:38.742Z,14.20
2019-02-24T10:42:08.065Z,15.00
2019-02-24T10:44:37.140Z,13.53
2019-02-24T10:47:06.278Z,14.40
2019-02-24T10:49:35.636Z,15.43
2019-02-24T10:52:04.687Z,12.83
2019-02-24T10:54:33.757Z,13.33
2019-02-24T10:57:03.064Z,14.87
2019-02-24T10:59:34.915Z,17.57
2019-02-24T11:02:04.308Z,13.07
2019-02-24T11:04:33.375Z,15.97
2019-02-24T11:07:02.519Z,12.20
2019-02-24T11:09:31.913Z,12.53
2019-02-24T11:12:01.155Z,11.80
2019-02-24T11:14:30.298Z,14.47
2019-02-24T11:16:59.713Z,10.90
2019-02-24T11:19:28.715Z,13.47
2019-02-24T11:21:57.786Z,12.37
2019-02-24T11:24:27.209Z,14.27
2019-02-24T11:26:56.297Z,13.93
2019-02-24T11:29:25.399Z,14.97
2019-02-24T11:31:54.695Z,14.77
2019-02-24T11:34:23.779Z,16.80
2019-02-24T11:36:54.468Z,13.13
2019-02-24T11:39:23.819Z,18.30
2019-02-24T11:41:52.953Z,14.83
2019-02-24T11:44:22.038Z,16.17
2019-02-24T11:46:51.322Z,14.67
2019-02-24T11:49:20.475Z,15.13
2019-02-24T11:51:49.472Z,15.20
2019-02-24T11:54:18.891Z,14.07
2019-02-24T11:56:47.952Z,15.57
2019-02-24T11:59:16.906Z,14.93
2019-02-24T12:01:47.808Z,14.03
2019-02-24T12:04:17.158Z,17.30
2019-02-24T12:06:46.231Z,13.73
2019-02-24T12:09:15.414Z,15.80
2019-02-24T12:11:44.498Z,13.23
2019-02-24T12:14:13.506Z,11.10
2019-02-24T12:16:42.768Z,11.10
2019-02-24T12:19:11.834Z,10.10
2019-02-24T12:21:40.848Z,10.53
2019-02-24T12:24:10.091Z,10.50
2019-02-24T12:26:39.076Z,10.07
2019-02-24T12:29:08.015Z,9.40
2019-02-24T12:31:37.280Z,9.57
2019-02-24T12:34:06.357Z,9.57
2019-02-24T12:36:35.355Z,9.63
2019-02-24T12:39:05.818Z,10.73
2019-02-24T12:41:34.897Z,9.77
2019-02-24T12:44:03.967Z,11.57
2019-02-24T12:46:33.071Z,9.10
2019-02-24T12:49:08.151Z,11.30
2019-02-24T12:51:37.621Z,8.37
2019-02-24T12:54:06.715Z,12.70
2019-02-24T12:56:35.833Z,8.83
2019-02-24T12:59:05.207Z,8.40
2019-02-24T13:01:34.355Z,9.77
2019-02-24T13:04:06.809Z,9.53
2019-02-24T13:06:35.775Z,7.17
2019-02-24T13:09:09.222Z,9.33
2019-02-24T13:11:38.294Z,9.87
2019-02-24T13:14:07.472Z,8.23
2019-02-24T13:16:36.761Z,9.13
2019-02-24T13:19:05.869Z,7.63
2019-02-24T13:21:34.936Z,9.77
2019-02-24T13:24:04.273Z,8.73
2019-02-24T13:26:33.354Z,8.47
2019-02-24T13:29:02.428Z,7.60
2019-02-24T13:31:31.747Z,8.30
2019-02-24T13:34:00.809Z,7.93
2019-02-24T13:36:29.811Z,8.20
2019-02-24T13:38:58.924Z,7.20
2019-02-24T13:41:28.102Z,7.17
2019-02-24T13:43:57.173Z,7.17
2019-02-24T13:46:26.530Z,6.40
2019-02-24T13:48:55.708Z,8.23
2019-02-24T13:51:24.773Z,7.70
2019-02-24T13:53:54.029Z,7.93
2019-02-24T13:56:23.018Z,8.80
2019-02-24T13:58:53.291Z,7.63
2019-02-24T14:01:23.104Z,8.47
2019-02-24T14:03:52.222Z,8.67
2019-02-24T14:06:21.357Z,5.77
2019-02-24T14:08:50.732Z,6.83
2019-02-24T14:11:19.792Z,8.20
2019-02-24T14:13:48.880Z,8.17
2019-02-24T14:16:18.116Z,8.67
2019-02-24T14:18:47.170Z,8.47
2019-02-24T14:21:16.180Z,7.43
2019-02-24T14:23:45.606Z,8.00
2019-02-24T14:26:14.608Z,8.43
2019-02-24T14:28:43.627Z,8.87
2019-02-24T14:31:13.386Z,8.07
2019-02-24T14:33:42.413Z,10.03
2019-02-24T14:36:11.534Z,8.40
2019-02-24T14:38:40.825Z,10.70
2019-02-24T14:41:09.919Z,9.90
2019-02-24T14:43:38.973Z,10.37
2019-02-24T14:46:09.515Z,9.57
2019-02-24T14:48:38.590Z,10.53
2019-02-24T14:51:07.758Z,8.43
2019-02-24T14:53:37.011Z,11.27
2019-02-24T14:56:06.121Z,11.80
2019-02-24T14:58:35.277Z,10.40
2019-02-24T15:01:04.501Z,8.23
2019-02-24T15:03:33.478Z,9.03
2019-02-24T15:06:02.547Z,7.83
2019-02-24T15:08:31.794Z,8.17
2019-02-24T15:11:01.335Z,10.37
2019-02-24T15:13:30.426Z,9.33
2019-02-24T15:15:59.695Z,11.90
2019-02-24T15:18:28.820Z,10.83
2019-02-24T15:20:57.809Z,11.00
2019-02-24T15:23:27.175Z,12.47
2019-02-24T15:25:56.269Z,13.60
2019-02-24T15:28:26.187Z,14.60
2019-02-24T15:30:55.508Z,15.13
2019-02-24T15:33:24.627Z,12.70
2019-02-24T15:35:53.707Z,12.27
2019-02-24T15:38:23.180Z,11.27
2019-02-24T15:40:52.285Z,12.93
2019-02-24T15:43:21.451Z,16.00
2019-02-24T15:45:50.523Z,13.97
2019-02-24T15:48:19.582Z,12.47
2019-02-24T15:50:48.719Z,13.97
2019-02-24T15:53:18.059Z,14.17
2019-02-24T15:55:47.083Z,15.57
2019-02-24T15:58:17.809Z,14.00
2019-02-24T16:00:48.273Z,14.77
2019-02-24T16:03:17.390Z,16.03
2019-02-24T16:05:46.612Z,15.07
2019-02-24T16:08:15.890Z,16.17
2019-02-24T16:10:44.948Z,16.50
2019-02-24T16:13:17.057Z,14.67
2019-02-24T16:15:45.147Z,17.10
2019-02-24T16:18:14.225Z,14.33
2019-02-24T16:20:43.308Z,14.90
2019-02-24T16:23:12.631Z,15.73
2019-02-24T16:25:41.614Z,15.13
2019-02-24T16:28:10.834Z,18.10
2019-02-24T16:30:40.215Z,17.93
2019-02-24T16:33:10.757Z,18.97
2019-02-24T16:35:40.249Z,18.30
2019-02-24T16:38:09.454Z,16.27
2019-02-24T16:40:38.548Z,15.47
2019-02-24T16:43:07.766Z,15.07
2019-02-24T16:45:37.265Z,18.03
2019-02-24T16:48:06.442Z,18.73
2019-02-24T16:50:35.571Z,17.57
2019-02-24T16:53:04.861Z,16.87
2019-02-24T17:53:05.056Z,30.63
2019-02-24T17:55:34.216Z,30.80
2019-02-24T17:58:03.340Z,36.17
2019-02-24T18:00:33.989Z,30.87
2019-02-24T18:03:03.155Z,33.67
2019-02-24T18:05:32.245Z,38.60
2019-02-24T18:08:01.421Z,29.63
2019-02-24T18:10:30.694Z,26.53
2019-02-24T18:13:00.043Z,26.60
2019-02-24T18:15:31.742Z,32.30
2019-02-24T18:18:01.051Z,27.50
2019-02-24T18:20:30.475Z,29.67
2019-02-24T18:22:59.842Z,28.77
2019-02-24T18:25:29.317Z,27.90
2019-02-24T18:27:58.479Z,27.10
2019-02-24T18:30:27.720Z,26.47
2019-02-24T18:32:56.810Z,26.33
2019-02-24T18:35:26.015Z,24.07
2019-02-24T18:37:55.875Z,23.67
2019-02-24T18:40:24.989Z,23.67
2019-02-24T18:43:00.291Z,21.07
2019-02-24T18:45:25.177Z,23.67
2019-02-24T18:47:54.254Z,23.20
2019-02-24T18:50:23.380Z,23.97
2019-02-24T18:52:52.668Z,19.40
2019-02-24T18:55:21.730Z,23.13
2019-02-24T18:57:50.819Z,23.93
2019-02-24T19:00:20.215Z,21.77
2019-02-24T19:02:49.295Z,26.00
2019-02-24T19:05:18.358Z,23.50
2019-02-24T19:07:47.659Z,22.23
2019-02-24T19:10:16.854Z,21.53
2019-02-24T19:12:45.994Z,21.73
2019-02-24T19:15:16.801Z,23.20
2019-02-24T19:17:45.954Z,20.07
2019-02-24T19:20:16.761Z,22.77
2019-02-24T19:22:46.350Z,20.80
2019-02-24T19:25:15.474Z,20.63
2019-02-24T19:27:49.082Z,21.20
2019-02-24T19:30:18.451Z,20.80
2019-02-24T19:32:47.856Z,21.63
2019-02-24T19:35:17.350Z,20.67
2019-02-24T19:37:46.558Z,19.73
2019-02-24T19:40:16.568Z,17.93
2019-02-24T19:42:47.050Z,18.57
2019-02-24T19:45:16.886Z,18.10
2019-02-24T19:47:46.008Z,19.47
2019-02-24T19:50:16.629Z,22.67
2019-02-24T19:52:45.844Z,21.07
2019-02-24T19:55:15.127Z,19.00
2019-02-24T19:57:44.639Z,19.53
2019-02-24T20:00:19.247Z,21.37
2019-02-24T20:02:48.622Z,21.67
2019-02-24T20:05:17.727Z,22.17
2019-02-24T20:07:46.814Z,19.87
2019-02-24T20:10:17.965Z,18.63
2019-02-24T20:12:47.033Z,21.00
2019-02-24T20:15:16.135Z,19.53
2019-02-24T20:17:45.551Z,17.40
2019-02-24T20:20:15.077Z,23.23
2019-02-24T20:22:44.133Z,23.30
2019-02-24T20:25:13.681Z,24.37
2019-02-24T20:27:42.876Z,19.43
2019-02-24T20:30:15.147Z,21.03
2019-02-24T20:32:44.466Z,21.23
2019-02-24T20:35:13.526Z,24.20
2019-02-24T20:37:43.023Z,19.47
2019-02-24T20:40:12.167Z,22.73
2019-02-24T20:42:41.264Z,22.17
2019-02-24T20:45:11.692Z,18.07
2019-02-24T20:47:40.788Z,20.57
2019-02-24T20:50:10.860Z,20.03
2019-02-24T20:52:40.254Z,19.30
2019-02-24T20:55:09.778Z,20.43
2019-02-24T20:57:38.932Z,22.50
2019-02-24T21:00:17.889Z,23.40
2019-02-24T21:02:47.043Z,21.70
2019-02-24T21:05:16.126Z,21.30
2019-02-24T21:07:45.396Z,25.17
2019-02-24T21:10:14.479Z,28.50
2019-02-24T21:12:43.561Z,28.17
2019-02-24T21:15:13.172Z,27.20
2019-02-24T21:17:42.406Z,22.63
2019-02-24T21:20:14.554Z,22.97
2019-02-24T21:22:43.626Z,23.80
2019-02-24T21:25:12.708Z,22.47
2019-02-24T21:27:42.051Z,24.43
2019-02-24T21:30:13.487Z,24.63
2019-02-24T21:32:42.654Z,23.10
2019-02-24T21:35:12.056Z,22.97
2019-02-24T21:37:41.152Z,21.57
2019-02-24T21:40:10.876Z,24.10
2019-02-24T21:42:40.006Z,21.77
2019-02-24T21:45:11.587Z,20.00
2019-02-24T21:47:40.667Z,20.67
2019-02-24T21:50:10.874Z,21.37
2019-02-24T21:52:39.944Z,22.07
2019-02-24T21:55:09.475Z,28.70
2019-02-24T21:57:38.860Z,26.33
2019-02-24T22:00:11.620Z,30.00
2019-02-24T22:02:41.152Z,23.33
2019-02-24T22:05:10.327Z,23.60
2019-02-24T22:07:39.491Z,22.03
2019-02-24T22:10:09.557Z,25.90
2019-02-24T22:12:38.614Z,24.23
2019-02-24T22:15:09.868Z,22.17
2019-02-24T22:17:38.970Z,22.53
2019-02-24T22:20:08.736Z,22.23
2019-02-24T22:22:37.807Z,22.03
2019-02-24T22:25:07.017Z,20.63
2019-02-24T22:27:36.070Z,22.60
2019-02-24T22:30:05.701Z,20.63
2019-02-24T22:32:34.696Z,24.17
2019-02-24T22:35:04.111Z,23.57
2019-02-24T22:37:33.339Z,26.27
2019-02-24T22:40:02.453Z,23.47
2019-02-24T22:42:31.550Z,25.37
2019-02-24T22:45:00.769Z,23.07
2019-02-24T22:47:29.850Z,24.27
2019-02-24T22:49:58.925Z,24.00
2019-02-24T22:52:28.277Z,22.87
2019-02-24T22:54:57.415Z,24.67
2019-02-24T22:57:26.483Z,24.33
2019-02-24T22:59:55.819Z,20.40
2019-02-24T23:02:24.878Z,24.03
2019-02-24T23:04:54.029Z,23.13
2019-02-24T23:07:23.349Z,22.63
2019-02-24T23:09:54.477Z,23.27
2019-02-24T23:12:23.551Z,23.00
2019-02-24T23:14:54.538Z,23.00
2019-02-24T23:17:23.626Z,24.53
2019-02-24T23:19:52.607Z,22.33
2019-02-24T23:22:21.829Z,22.03
2019-02-24T23:24:50.882Z,22.40
2019-02-24T23:27:19.814Z,22.90
2019-02-24T23:29:49.113Z,23.53
2019-02-24T23:32:18.130Z,21.20
2019-02-24T23:34:47.187Z,21.40
2019-02-24T23:37:16.482Z,25.30
2019-02-24T23:39:45.538Z,21.47
2019-02-24T23:42:14.618Z,21.67
2019-02-24T23:44:43.888Z,20.60
2019-02-24T23:47:13.028Z,23.10
2019-02-24T23:49:42.143Z,23.43
2019-02-24T23:52:11.474Z,22.90
2019-02-24T23:54:41.496Z,23.30
2019-02-24T23:57:10.743Z,24.17
2019-02-24T23:59:39.995Z,22.90
